sensor_id;sensor_type;location;lat;lon;timestamp;P1;durP1;ratioP1;P2;durP2;ratioP2
59336;SDS011;45115;52.002;4.686;2023-05-24T00:01:46;11.43;;;4.22;;
59336;SDS011;45115;52.002;4.686;2023-05-24T00:04:14;15.98;;;4.47;;
59336;SDS011;45115;52.002;4.686;2023-05-24T00:06:40;15.93;;;4.22;;
59336;SDS011;45115;52.002;4.686;2023-05-24T00:09:09;10.77;;;3.90;;
59336;SDS011;45115;52.002;4.686;2023-05-24T00:11:35;10.85;;;4.00;;
59336;SDS011;45115;52.002;4.686;2023-05-24T00:14:02;17.33;;;4.68;;
59336;SDS011;45115;52.002;4.686;2023-05-24T00:16:29;12.50;;;4.03;;
59336;SDS011;45115;52.002;4.686;2023-05-24T00:18:55;10.55;;;3.90;;
59336;SDS011;45115;52.002;4.686;2023-05-24T00:21:24;10.65;;;3.60;;
59336;SDS011;45115;52.002;4.686;2023-05-24T00:23:51;13.85;;;4.15;;
59336;SDS011;45115;52.002;4.686;2023-05-24T00:26:18;14.98;;;4.93;;
59336;SDS011;45115;52.002;4.686;2023-05-24T00:28:51;14.90;;;3.90;;
59336;SDS011;45115;52.002;4.686;2023-05-24T00:31:18;10.02;;;4.22;;
59336;SDS011;45115;52.002;4.686;2023-05-24T00:33:44;11.20;;;4.38;;
59336;SDS011;45115;52.002;4.686;2023-05-24T00:36:11;12.45;;;4.15;;
59336;SDS011;45115;52.002;4.686;2023-05-24T00:38:40;12.07;;;4.00;;
59336;SDS011;45115;52.002;4.686;2023-05-24T00:41:06;13.38;;;4.45;;
59336;SDS011;45115;52.002;4.686;2023-05-24T00:43:33;11.90;;;4.50;;
59336;SDS011;45115;52.002;4.686;2023-05-24T00:48:47;12.75;;;4.25;;
59336;SDS011;45115;52.002;4.686;2023-05-24T00:51:16;11.15;;;4.07;;
59336;SDS011;45115;52.002;4.686;2023-05-24T00:53:46;18.67;;;5.25;;
59336;SDS011;45115;52.002;4.686;2023-05-24T00:56:14;13.40;;;4.90;;
59336;SDS011;45115;52.002;4.686;2023-05-24T00:58:42;12.10;;;4.18;;
59336;SDS011;45115;52.002;4.686;2023-05-24T01:01:10;14.52;;;4.97;;
59336;SDS011;45115;52.002;4.686;2023-05-24T01:03:36;13.63;;;4.72;;
59336;SDS011;45115;52.002;4.686;2023-05-24T01:06:04;17.17;;;4.85;;
59336;SDS011;45115;52.002;4.686;2023-05-24T01:08:38;12.88;;;4.30;;
59336;SDS011;45115;52.002;4.686;2023-05-24T01:11:15;12.25;;;4.28;;
59336;SDS011;45115;52.002;4.686;2023-05-24T01:13:47;18.73;;;5.53;;
59336;SDS011;45115;52.002;4.686;2023-05-24T01:16:21;13.75;;;4.53;;
59336;SDS011;45115;52.002;4.686;2023-05-24T01:18:51;13.95;;;4.18;;
59336;SDS011;45115;52.002;4.686;2023-05-24T01:21:36;13.38;;;4.60;;
59336;SDS011;45115;52.002;4.686;2023-05-24T01:24:24;13.20;;;4.40;;
59336;SDS011;45115;52.002;4.686;2023-05-24T01:27:04;16.30;;;5.28;;
59336;SDS011;45115;52.002;4.686;2023-05-24T01:29:33;16.67;;;5.22;;
59336;SDS011;45115;52.002;4.686;2023-05-24T01:32:01;18.13;;;5.65;;
59336;SDS011;45115;52.002;4.686;2023-05-24T01:34:28;16.45;;;5.50;;
59336;SDS011;45115;52.002;4.686;2023-05-24T01:36:55;12.63;;;5.05;;
59336;SDS011;45115;52.002;4.686;2023-05-24T01:39:24;14.45;;;5.05;;
59336;SDS011;45115;52.002;4.686;2023-05-24T01:44:28;11.55;;;4.25;;
59336;SDS011;45115;52.002;4.686;2023-05-24T01:47:00;20.95;;;5.93;;
59336;SDS011;45115;52.002;4.686;2023-05-24T01:49:31;19.45;;;4.97;;
59336;SDS011;45115;52.002;4.686;2023-05-24T01:52:03;12.77;;;4.63;;
59336;SDS011;45115;52.002;4.686;2023-05-24T01:54:36;15.68;;;4.78;;
59336;SDS011;45115;52.002;4.686;2023-05-24T01:57:09;19.90;;;6.88;;
59336;SDS011;45115;52.002;4.686;2023-05-24T01:59:37;13.88;;;5.85;;
59336;SDS011;45115;52.002;4.686;2023-05-24T02:02:07;15.85;;;5.07;;
59336;SDS011;45115;52.002;4.686;2023-05-24T02:04:34;15.70;;;4.95;;
59336;SDS011;45115;52.002;4.686;2023-05-24T02:07:00;11.75;;;4.15;;
59336;SDS011;45115;52.002;4.686;2023-05-24T02:09:27;15.73;;;4.70;;
59336;SDS011;45115;52.002;4.686;2023-05-24T02:11:54;14.60;;;5.07;;
59336;SDS011;45115;52.002;4.686;2023-05-24T02:14:21;17.88;;;5.07;;
59336;SDS011;45115;52.002;4.686;2023-05-24T02:16:49;11.43;;;4.40;;
59336;SDS011;45115;52.002;4.686;2023-05-24T02:19:17;15.80;;;4.93;;
59336;SDS011;45115;52.002;4.686;2023-05-24T02:21:44;14.73;;;4.35;;
59336;SDS011;45115;52.002;4.686;2023-05-24T02:24:11;14.25;;;5.00;;
59336;SDS011;45115;52.002;4.686;2023-05-24T02:26:37;10.98;;;4.50;;
59336;SDS011;45115;52.002;4.686;2023-05-24T02:29:04;13.23;;;4.18;;
59336;SDS011;45115;52.002;4.686;2023-05-24T02:31:31;13.27;;;4.63;;
59336;SDS011;45115;52.002;4.686;2023-05-24T02:33:59;11.98;;;4.10;;
59336;SDS011;45115;52.002;4.686;2023-05-24T02:36:25;12.38;;;4.70;;
59336;SDS011;45115;52.002;4.686;2023-05-24T02:38:52;11.10;;;4.07;;
59336;SDS011;45115;52.002;4.686;2023-05-24T02:41:19;13.98;;;4.78;;
59336;SDS011;45115;52.002;4.686;2023-05-24T02:43:46;12.63;;;4.47;;
59336;SDS011;45115;52.002;4.686;2023-05-24T02:46:14;13.07;;;4.60;;
59336;SDS011;45115;52.002;4.686;2023-05-24T02:48:41;28.40;;;5.20;;
59336;SDS011;45115;52.002;4.686;2023-05-24T02:51:10;12.07;;;4.03;;
59336;SDS011;45115;52.002;4.686;2023-05-24T02:53:36;10.63;;;4.22;;
59336;SDS011;45115;52.002;4.686;2023-05-24T02:56:03;13.00;;;4.72;;
59336;SDS011;45115;52.002;4.686;2023-05-24T02:58:31;14.73;;;5.18;;
59336;SDS011;45115;52.002;4.686;2023-05-24T03:00:58;13.05;;;5.03;;
59336;SDS011;45115;52.002;4.686;2023-05-24T03:03:26;14.52;;;4.70;;
59336;SDS011;45115;52.002;4.686;2023-05-24T03:05:52;16.00;;;4.80;;
59336;SDS011;45115;52.002;4.686;2023-05-24T03:08:20;15.25;;;4.70;;
59336;SDS011;45115;52.002;4.686;2023-05-24T03:10:47;13.52;;;4.90;;
59336;SDS011;45115;52.002;4.686;2023-05-24T03:13:14;12.07;;;4.47;;
59336;SDS011;45115;52.002;4.686;2023-05-24T03:15:40;10.25;;;4.05;;
59336;SDS011;45115;52.002;4.686;2023-05-24T03:18:07;10.18;;;4.38;;
59336;SDS011;45115;52.002;4.686;2023-05-24T03:20:34;13.02;;;4.85;;
59336;SDS011;45115;52.002;4.686;2023-05-24T03:23:01;12.80;;;4.78;;
59336;SDS011;45115;52.002;4.686;2023-05-24T03:25:29;13.65;;;4.70;;
59336;SDS011;45115;52.002;4.686;2023-05-24T03:27:56;15.77;;;5.38;;
59336;SDS011;45115;52.002;4.686;2023-05-24T03:30:23;14.55;;;4.78;;
59336;SDS011;45115;52.002;4.686;2023-05-24T03:32:53;10.98;;;4.43;;
59336;SDS011;45115;52.002;4.686;2023-05-24T03:35:20;11.70;;;4.50;;
59336;SDS011;45115;52.002;4.686;2023-05-24T03:37:48;12.73;;;4.10;;
59336;SDS011;45115;52.002;4.686;2023-05-24T03:40:15;12.68;;;4.40;;
59336;SDS011;45115;52.002;4.686;2023-05-24T03:42:53;13.70;;;4.25;;
59336;SDS011;45115;52.002;4.686;2023-05-24T03:45:29;16.23;;;4.57;;
59336;SDS011;45115;52.002;4.686;2023-05-24T03:47:56;14.52;;;4.28;;
59336;SDS011;45115;52.002;4.686;2023-05-24T03:50:23;14.43;;;4.57;;
59336;SDS011;45115;52.002;4.686;2023-05-24T03:52:50;14.07;;;4.68;;
59336;SDS011;45115;52.002;4.686;2023-05-24T03:55:17;11.85;;;4.85;;
59336;SDS011;45115;52.002;4.686;2023-05-24T03:57:44;14.02;;;4.65;;
59336;SDS011;45115;52.002;4.686;2023-05-24T04:00:13;15.00;;;5.00;;
59336;SDS011;45115;52.002;4.686;2023-05-24T04:02:40;16.05;;;5.55;;
59336;SDS011;45115;52.002;4.686;2023-05-24T04:05:06;15.13;;;4.57;;
59336;SDS011;45115;52.002;4.686;2023-05-24T04:07:36;15.90;;;5.43;;
59336;SDS011;45115;52.002;4.686;2023-05-24T04:10:03;12.68;;;4.25;;
59336;SDS011;45115;52.002;4.686;2023-05-24T04:12:31;17.63;;;5.47;;
59336;SDS011;45115;52.002;4.686;2023-05-24T04:14:58;15.60;;;5.38;;
59336;SDS011;45115;52.002;4.686;2023-05-24T04:17:26;11.85;;;4.65;;
59336;SDS011;45115;52.002;4.686;2023-05-24T04:19:57;13.02;;;4.93;;
59336;SDS011;45115;52.002;4.686;2023-05-24T04:22:23;12.43;;;4.22;;
59336;SDS011;45115;52.002;4.686;2023-05-24T04:24:51;13.27;;;4.20;;
59336;SDS011;45115;52.002;4.686;2023-05-24T04:27:17;15.40;;;5.13;;
59336;SDS011;45115;52.002;4.686;2023-05-24T04:29:44;14.73;;;4.93;;
59336;SDS011;45115;52.002;4.686;2023-05-24T04:32:14;15.25;;;4.85;;
59336;SDS011;45115;52.002;4.686;2023-05-24T04:34:44;14.60;;;4.90;;
59336;SDS011;45115;52.002;4.686;2023-05-24T04:37:11;12.40;;;4.30;;
59336;SDS011;45115;52.002;4.686;2023-05-24T04:39:43;11.93;;;4.75;;
59336;SDS011;45115;52.002;4.686;2023-05-24T04:42:10;12.30;;;4.85;;
59336;SDS011;45115;52.002;4.686;2023-05-24T04:44:38;17.88;;;5.80;;
59336;SDS011;45115;52.002;4.686;2023-05-24T04:47:05;15.38;;;5.60;;
59336;SDS011;45115;52.002;4.686;2023-05-24T04:49:32;15.23;;;4.93;;
59336;SDS011;45115;52.002;4.686;2023-05-24T04:52:00;13.30;;;5.05;;
59336;SDS011;45115;52.002;4.686;2023-05-24T04:54:27;19.30;;;5.38;;
59336;SDS011;45115;52.002;4.686;2023-05-24T04:56:54;15.82;;;5.70;;
59336;SDS011;45115;52.002;4.686;2023-05-24T04:59:20;18.05;;;6.32;;
59336;SDS011;45115;52.002;4.686;2023-05-24T05:01:47;19.35;;;7.18;;
59336;SDS011;45115;52.002;4.686;2023-05-24T05:04:14;22.67;;;6.18;;
59336;SDS011;45115;52.002;4.686;2023-05-24T05:06:41;17.73;;;5.88;;
59336;SDS011;45115;52.002;4.686;2023-05-24T05:09:10;21.02;;;5.78;;
59336;SDS011;45115;52.002;4.686;2023-05-24T05:11:38;19.70;;;6.00;;
59336;SDS011;45115;52.002;4.686;2023-05-24T05:14:05;20.58;;;6.50;;
59336;SDS011;45115;52.002;4.686;2023-05-24T05:16:33;19.58;;;5.78;;
59336;SDS011;45115;52.002;4.686;2023-05-24T05:19:00;17.23;;;6.18;;
59336;SDS011;45115;52.002;4.686;2023-05-24T05:21:28;21.15;;;5.90;;
59336;SDS011;45115;52.002;4.686;2023-05-24T05:23:57;17.52;;;5.30;;
59336;SDS011;45115;52.002;4.686;2023-05-24T05:26:25;13.82;;;5.07;;
59336;SDS011;45115;52.002;4.686;2023-05-24T05:28:52;16.27;;;5.63;;
59336;SDS011;45115;52.002;4.686;2023-05-24T05:31:19;14.38;;;5.13;;
59336;SDS011;45115;52.002;4.686;2023-05-24T05:33:50;13.27;;;5.03;;
59336;SDS011;45115;52.002;4.686;2023-05-24T05:36:19;15.88;;;4.80;;
59336;SDS011;45115;52.002;4.686;2023-05-24T05:38:46;12.68;;;5.05;;
59336;SDS011;45115;52.002;4.686;2023-05-24T05:41:12;15.18;;;5.30;;
59336;SDS011;45115;52.002;4.686;2023-05-24T05:43:40;16.80;;;4.78;;
59336;SDS011;45115;52.002;4.686;2023-05-24T05:46:07;15.88;;;5.38;;
59336;SDS011;45115;52.002;4.686;2023-05-24T05:48:35;15.27;;;4.75;;
59336;SDS011;45115;52.002;4.686;2023-05-24T05:51:02;14.82;;;4.55;;
59336;SDS011;45115;52.002;4.686;2023-05-24T05:53:36;9.20;;;3.88;;
59336;SDS011;45115;52.002;4.686;2023-05-24T05:56:03;12.40;;;4.70;;
59336;SDS011;45115;52.002;4.686;2023-05-24T05:58:30;13.82;;;4.32;;
59336;SDS011;45115;52.002;4.686;2023-05-24T06:00:58;17.83;;;5.43;;
59336;SDS011;45115;52.002;4.686;2023-05-24T06:03:25;11.82;;;4.30;;
59336;SDS011;45115;52.002;4.686;2023-05-24T06:05:51;17.58;;;5.30;;
59336;SDS011;45115;52.002;4.686;2023-05-24T06:08:18;18.20;;;4.30;;
59336;SDS011;45115;52.002;4.686;2023-05-24T06:10:45;15.50;;;5.13;;
59336;SDS011;45115;52.002;4.686;2023-05-24T06:13:11;14.20;;;4.68;;
59336;SDS011;45115;52.002;4.686;2023-05-24T06:15:38;15.52;;;4.75;;
59336;SDS011;45115;52.002;4.686;2023-05-24T06:18:06;12.52;;;4.70;;
59336;SDS011;45115;52.002;4.686;2023-05-24T06:20:33;13.15;;;4.43;;
59336;SDS011;45115;52.002;4.686;2023-05-24T06:23:00;13.63;;;4.65;;
59336;SDS011;45115;52.002;4.686;2023-05-24T06:25:27;13.35;;;5.22;;
59336;SDS011;45115;52.002;4.686;2023-05-24T06:27:55;17.58;;;5.47;;
59336;SDS011;45115;52.002;4.686;2023-05-24T06:30:21;13.82;;;4.63;;
59336;SDS011;45115;52.002;4.686;2023-05-24T06:32:48;14.73;;;4.93;;
59336;SDS011;45115;52.002;4.686;2023-05-24T06:35:16;13.50;;;5.00;;
59336;SDS011;45115;52.002;4.686;2023-05-24T06:37:43;14.57;;;5.28;;
59336;SDS011;45115;52.002;4.686;2023-05-24T06:40:10;13.48;;;4.65;;
59336;SDS011;45115;52.002;4.686;2023-05-24T06:42:37;15.98;;;5.45;;
59336;SDS011;45115;52.002;4.686;2023-05-24T06:45:05;19.20;;;6.10;;
59336;SDS011;45115;52.002;4.686;2023-05-24T06:47:32;13.02;;;5.15;;
59336;SDS011;45115;52.002;4.686;2023-05-24T06:50:00;15.48;;;4.95;;
59336;SDS011;45115;52.002;4.686;2023-05-24T06:52:29;13.75;;;5.28;;
59336;SDS011;45115;52.002;4.686;2023-05-24T06:54:56;15.00;;;4.30;;
59336;SDS011;45115;52.002;4.686;2023-05-24T06:57:22;12.80;;;4.68;;
59336;SDS011;45115;52.002;4.686;2023-05-24T06:59:49;14.13;;;3.83;;
59336;SDS011;45115;52.002;4.686;2023-05-24T07:02:16;15.02;;;5.00;;
59336;SDS011;45115;52.002;4.686;2023-05-24T07:04:42;12.30;;;4.20;;
59336;SDS011;45115;52.002;4.686;2023-05-24T07:07:09;13.95;;;4.70;;
59336;SDS011;45115;52.002;4.686;2023-05-24T07:09:39;11.93;;;4.07;;
59336;SDS011;45115;52.002;4.686;2023-05-24T07:12:06;14.68;;;4.68;;
59336;SDS011;45115;52.002;4.686;2023-05-24T07:14:33;15.52;;;4.28;;
59336;SDS011;45115;52.002;4.686;2023-05-24T07:17:00;10.10;;;3.60;;
59336;SDS011;45115;52.002;4.686;2023-05-24T07:19:27;13.00;;;4.90;;
59336;SDS011;45115;52.002;4.686;2023-05-24T07:21:54;11.75;;;3.67;;
59336;SDS011;45115;52.002;4.686;2023-05-24T07:24:20;14.68;;;4.30;;
59336;SDS011;45115;52.002;4.686;2023-05-24T07:26:49;13.70;;;4.30;;
59336;SDS011;45115;52.002;4.686;2023-05-24T07:29:16;13.82;;;4.60;;
59336;SDS011;45115;52.002;4.686;2023-05-24T07:31:43;14.25;;;3.85;;
59336;SDS011;45115;52.002;4.686;2023-05-24T10:19:58;10.52;;;4.10;;
59336;SDS011;45115;52.002;4.686;2023-05-24T10:22:24;9.63;;;4.00;;
59336;SDS011;45115;52.002;4.686;2023-05-24T10:24:52;10.30;;;3.80;;
59336;SDS011;45115;52.002;4.686;2023-05-24T10:27:23;13.70;;;4.32;;
59336;SDS011;45115;52.002;4.686;2023-05-24T10:29:56;14.18;;;4.45;;
59336;SDS011;45115;52.002;4.686;2023-05-24T10:32:26;10.65;;;4.60;;
59336;SDS011;45115;52.002;4.686;2023-05-24T10:34:55;8.05;;;3.72;;
59336;SDS011;45115;52.002;4.686;2023-05-24T10:37:24;11.27;;;4.30;;
59336;SDS011;45115;52.002;4.686;2023-05-24T10:39:51;8.75;;;4.20;;
59336;SDS011;45115;52.002;4.686;2023-05-24T10:42:18;10.23;;;3.90;;
59336;SDS011;45115;52.002;4.686;2023-05-24T10:44:45;10.30;;;3.78;;
59336;SDS011;45115;52.002;4.686;2023-05-24T10:47:12;13.18;;;4.43;;
59336;SDS011;45115;52.002;4.686;2023-05-24T10:49:46;9.82;;;4.13;;
59336;SDS011;45115;52.002;4.686;2023-05-24T10:52:16;13.18;;;4.45;;
59336;SDS011;45115;52.002;4.686;2023-05-24T10:57:38;10.77;;;3.90;;
59336;SDS011;45115;52.002;4.686;2023-05-24T11:03:00;15.60;;;4.38;;
59336;SDS011;45115;52.002;4.686;2023-05-24T11:05:31;13.68;;;4.05;;
59336;SDS011;45115;52.002;4.686;2023-05-24T11:08:01;13.70;;;3.92;;
59336;SDS011;45115;52.002;4.686;2023-05-24T11:10:30;13.63;;;3.55;;
59336;SDS011;45115;52.002;4.686;2023-05-24T11:12:58;12.13;;;4.47;;
59336;SDS011;45115;52.002;4.686;2023-05-24T11:15:26;12.20;;;4.05;;
59336;SDS011;45115;52.002;4.686;2023-05-24T11:18:12;11.43;;;4.15;;
59336;SDS011;45115;52.002;4.686;2023-05-24T11:20:40;15.25;;;3.83;;
59336;SDS011;45115;52.002;4.686;2023-05-24T11:23:09;14.90;;;4.45;;
59336;SDS011;45115;52.002;4.686;2023-05-24T11:25:36;13.68;;;4.30;;
59336;SDS011;45115;52.002;4.686;2023-05-24T11:28:05;12.63;;;3.95;;
59336;SDS011;45115;52.002;4.686;2023-05-24T11:30:37;17.13;;;4.57;;
59336;SDS011;45115;52.002;4.686;2023-05-24T11:33:04;12.43;;;4.15;;
59336;SDS011;45115;52.002;4.686;2023-05-24T11:35:38;13.02;;;4.10;;
59336;SDS011;45115;52.002;4.686;2023-05-24T11:38:09;11.10;;;4.22;;
59336;SDS011;45115;52.002;4.686;2023-05-24T11:40:38;13.13;;;3.92;;
59336;SDS011;45115;52.002;4.686;2023-05-24T11:43:09;8.50;;;4.03;;
59336;SDS011;45115;52.002;4.686;2023-05-24T11:45:40;12.38;;;4.18;;
59336;SDS011;45115;52.002;4.686;2023-05-24T11:48:07;12.10;;;4.28;;
59336;SDS011;45115;52.002;4.686;2023-05-24T11:50:36;11.35;;;4.22;;
59336;SDS011;45115;52.002;4.686;2023-05-24T11:53:04;10.05;;;3.50;;
59336;SDS011;45115;52.002;4.686;2023-05-24T11:55:32;14.75;;;3.97;;
59336;SDS011;45115;52.002;4.686;2023-05-24T11:57:59;9.18;;;3.80;;
59336;SDS011;45115;52.002;4.686;2023-05-24T12:00:31;9.00;;;3.85;;
59336;SDS011;45115;52.002;4.686;2023-05-24T12:02:57;10.65;;;3.78;;
59336;SDS011;45115;52.002;4.686;2023-05-24T12:05:29;14.48;;;4.25;;
59336;SDS011;45115;52.002;4.686;2023-05-24T12:08:00;9.75;;;3.75;;
59336;SDS011;45115;52.002;4.686;2023-05-24T12:10:29;12.88;;;4.13;;
59336;SDS011;45115;52.002;4.686;2023-05-24T12:12:57;14.70;;;4.60;;
59336;SDS011;45115;52.002;4.686;2023-05-24T12:15:24;13.15;;;3.88;;
59336;SDS011;45115;52.002;4.686;2023-05-24T12:17:50;12.68;;;4.32;;
59336;SDS011;45115;52.002;4.686;2023-05-24T12:20:17;11.57;;;3.90;;
59336;SDS011;45115;52.002;4.686;2023-05-24T12:22:46;12.32;;;3.65;;
59336;SDS011;45115;52.002;4.686;2023-05-24T12:25:15;12.55;;;3.78;;
59336;SDS011;45115;52.002;4.686;2023-05-24T12:27:44;14.95;;;4.20;;
59336;SDS011;45115;52.002;4.686;2023-05-24T12:30:14;13.25;;;4.30;;
59336;SDS011;45115;52.002;4.686;2023-05-24T12:32:46;12.95;;;4.25;;
59336;SDS011;45115;52.002;4.686;2023-05-24T12:35:13;10.40;;;3.42;;
59336;SDS011;45115;52.002;4.686;2023-05-24T12:37:40;11.60;;;4.28;;
59336;SDS011;45115;52.002;4.686;2023-05-24T12:40:16;14.02;;;3.90;;
59336;SDS011;45115;52.002;4.686;2023-05-24T12:42:45;10.52;;;3.85;;
59336;SDS011;45115;52.002;4.686;2023-05-24T12:45:15;13.35;;;4.13;;
59336;SDS011;45115;52.002;4.686;2023-05-24T12:47:47;13.52;;;4.93;;
59336;SDS011;45115;52.002;4.686;2023-05-24T12:50:15;14.10;;;4.22;;
59336;SDS011;45115;52.002;4.686;2023-05-24T12:52:42;11.98;;;4.38;;
59336;SDS011;45115;52.002;4.686;2023-05-24T12:55:10;10.82;;;3.70;;
59336;SDS011;45115;52.002;4.686;2023-05-24T12:57:37;12.18;;;4.13;;
59336;SDS011;45115;52.002;4.686;2023-05-24T13:00:05;12.30;;;4.28;;
59336;SDS011;45115;52.002;4.686;2023-05-24T13:02:34;12.93;;;4.00;;
59336;SDS011;45115;52.002;4.686;2023-05-24T13:05:01;9.45;;;4.55;;
59336;SDS011;45115;52.002;4.686;2023-05-24T13:07:28;15.75;;;4.47;;
59336;SDS011;45115;52.002;4.686;2023-05-24T13:09:54;12.73;;;4.32;;
59336;SDS011;45115;52.002;4.686;2023-05-24T13:12:22;10.55;;;4.47;;
59336;SDS011;45115;52.002;4.686;2023-05-24T13:14:49;10.27;;;4.60;;
59336;SDS011;45115;52.002;4.686;2023-05-24T13:17:15;14.18;;;4.13;;
59336;SDS011;45115;52.002;4.686;2023-05-24T13:19:43;11.93;;;4.30;;
59336;SDS011;45115;52.002;4.686;2023-05-24T13:22:11;13.27;;;4.70;;
59336;SDS011;45115;52.002;4.686;2023-05-24T13:24:37;13.57;;;4.57;;
59336;SDS011;45115;52.002;4.686;2023-05-24T13:27:04;13.57;;;4.60;;
59336;SDS011;45115;52.002;4.686;2023-05-24T13:29:32;15.93;;;4.72;;
59336;SDS011;45115;52.002;4.686;2023-05-24T13:31:58;13.00;;;5.30;;
59336;SDS011;45115;52.002;4.686;2023-05-24T13:34:25;17.63;;;5.00;;
59336;SDS011;45115;52.002;4.686;2023-05-24T13:36:53;12.75;;;4.57;;
59336;SDS011;45115;52.002;4.686;2023-05-24T13:39:20;15.82;;;4.88;;
59336;SDS011;45115;52.002;4.686;2023-05-24T13:41:48;13.13;;;4.63;;
59336;SDS011;45115;52.002;4.686;2023-05-24T13:44:14;12.82;;;4.63;;
59336;SDS011;45115;52.002;4.686;2023-05-24T13:46:41;13.82;;;4.43;;
59336;SDS011;45115;52.002;4.686;2023-05-24T13:49:09;14.25;;;4.32;;
59336;SDS011;45115;52.002;4.686;2023-05-24T13:51:36;12.18;;;4.60;;
59336;SDS011;45115;52.002;4.686;2023-05-24T13:54:05;15.45;;;4.40;;
59336;SDS011;45115;52.002;4.686;2023-05-24T13:56:32;13.20;;;4.45;;
59336;SDS011;45115;52.002;4.686;2023-05-24T13:58:59;11.23;;;4.70;;
59336;SDS011;45115;52.002;4.686;2023-05-24T14:01:26;12.68;;;4.60;;
59336;SDS011;45115;52.002;4.686;2023-05-24T14:03:53;11.35;;;4.40;;
59336;SDS011;45115;52.002;4.686;2023-05-24T14:06:20;9.70;;;4.03;;
59336;SDS011;45115;52.002;4.686;2023-05-24T14:08:46;11.65;;;4.15;;
59336;SDS011;45115;52.002;4.686;2023-05-24T14:11:15;13.45;;;4.50;;
59336;SDS011;45115;52.002;4.686;2023-05-24T14:13:42;13.35;;;4.72;;
59336;SDS011;45115;52.002;4.686;2023-05-24T14:16:08;13.27;;;3.92;;
59336;SDS011;45115;52.002;4.686;2023-05-24T14:18:35;11.93;;;4.40;;
59336;SDS011;45115;52.002;4.686;2023-05-24T14:21:02;9.32;;;4.28;;
59336;SDS011;45115;52.002;4.686;2023-05-24T14:23:29;12.13;;;4.45;;
59336;SDS011;45115;52.002;4.686;2023-05-24T14:25:57;12.23;;;4.82;;
59336;SDS011;45115;52.002;4.686;2023-05-24T14:28:25;13.63;;;4.22;;
59336;SDS011;45115;52.002;4.686;2023-05-24T14:30:52;13.30;;;4.03;;
59336;SDS011;45115;52.002;4.686;2023-05-24T14:33:18;10.90;;;4.00;;
59336;SDS011;45115;52.002;4.686;2023-05-24T14:35:45;14.10;;;4.40;;
59336;SDS011;45115;52.002;4.686;2023-05-24T14:38:12;11.75;;;4.28;;
59336;SDS011;45115;52.002;4.686;2023-05-24T14:40:38;10.63;;;3.78;;
59336;SDS011;45115;52.002;4.686;2023-05-24T14:43:06;15.55;;;4.25;;
59336;SDS011;45115;52.002;4.686;2023-05-24T14:45:35;11.90;;;4.30;;
59336;SDS011;45115;52.002;4.686;2023-05-24T14:48:05;11.45;;;3.97;;
59336;SDS011;45115;52.002;4.686;2023-05-24T14:50:34;10.23;;;4.13;;
59336;SDS011;45115;52.002;4.686;2023-05-24T14:53:01;14.30;;;5.13;;
59336;SDS011;45115;52.002;4.686;2023-05-24T14:55:33;12.57;;;4.50;;
59336;SDS011;45115;52.002;4.686;2023-05-24T14:58:00;12.60;;;3.97;;
59336;SDS011;45115;52.002;4.686;2023-05-24T15:00:26;15.05;;;4.40;;
59336;SDS011;45115;52.002;4.686;2023-05-24T15:02:54;11.52;;;4.82;;
59336;SDS011;45115;52.002;4.686;2023-05-24T15:05:21;10.05;;;4.30;;
59336;SDS011;45115;52.002;4.686;2023-05-24T15:07:48;17.88;;;4.95;;
59336;SDS011;45115;52.002;4.686;2023-05-24T15:10:14;15.88;;;4.47;;
59336;SDS011;45115;52.002;4.686;2023-05-24T15:12:41;12.82;;;5.15;;
59336;SDS011;45115;52.002;4.686;2023-05-24T15:15:08;9.27;;;3.42;;
59336;SDS011;45115;52.002;4.686;2023-05-24T15:17:35;12.30;;;4.28;;
59336;SDS011;45115;52.002;4.686;2023-05-24T15:20:03;12.52;;;3.70;;
59336;SDS011;45115;52.002;4.686;2023-05-24T15:22:30;11.90;;;4.28;;
59336;SDS011;45115;52.002;4.686;2023-05-24T15:24:58;9.43;;;3.90;;
59336;SDS011;45115;52.002;4.686;2023-05-24T15:27:24;10.32;;;4.07;;
59336;SDS011;45115;52.002;4.686;2023-05-24T15:29:51;13.77;;;4.35;;
59336;SDS011;45115;52.002;4.686;2023-05-24T15:32:22;7.15;;;3.55;;
59336;SDS011;45115;52.002;4.686;2023-05-24T15:34:49;11.02;;;4.10;;
59336;SDS011;45115;52.002;4.686;2023-05-24T15:37:17;9.38;;;3.42;;
59336;SDS011;45115;52.002;4.686;2023-05-24T15:39:45;11.80;;;3.83;;
59336;SDS011;45115;52.002;4.686;2023-05-24T15:42:13;8.48;;;3.60;;
59336;SDS011;45115;52.002;4.686;2023-05-24T15:44:40;14.02;;;6.50;;
59336;SDS011;45115;52.002;4.686;2023-05-24T15:47:06;10.90;;;4.07;;
59336;SDS011;45115;52.002;4.686;2023-05-24T15:49:33;9.55;;;3.47;;
59336;SDS011;45115;52.002;4.686;2023-05-24T15:52:00;9.68;;;3.58;;
59336;SDS011;45115;52.002;4.686;2023-05-24T15:54:28;9.18;;;3.72;;
59336;SDS011;45115;52.002;4.686;2023-05-24T15:56:55;9.27;;;3.40;;
59336;SDS011;45115;52.002;4.686;2023-05-24T15:59:22;8.93;;;3.28;;
59336;SDS011;45115;52.002;4.686;2023-05-24T16:01:49;15.13;;;3.53;;
59336;SDS011;45115;52.002;4.686;2023-05-24T16:04:15;11.90;;;3.58;;
59336;SDS011;45115;52.002;4.686;2023-05-24T16:06:42;9.82;;;3.30;;
59336;SDS011;45115;52.002;4.686;2023-05-24T16:09:08;10.27;;;3.80;;
59336;SDS011;45115;52.002;4.686;2023-05-24T16:11:37;8.88;;;3.65;;
59336;SDS011;45115;52.002;4.686;2023-05-24T16:14:03;9.02;;;3.33;;
59336;SDS011;45115;52.002;4.686;2023-05-24T16:16:30;8.82;;;3.38;;
59336;SDS011;45115;52.002;4.686;2023-05-24T16:18:57;9.75;;;3.55;;
59336;SDS011;45115;52.002;4.686;2023-05-24T16:21:23;9.20;;;4.10;;
59336;SDS011;45115;52.002;4.686;2023-05-24T16:23:52;8.02;;;3.28;;
59336;SDS011;45115;52.002;4.686;2023-05-24T16:26:19;11.52;;;3.35;;
59336;SDS011;45115;52.002;4.686;2023-05-24T16:28:47;7.82;;;2.90;;
59336;SDS011;45115;52.002;4.686;2023-05-24T16:31:14;7.57;;;3.55;;
59336;SDS011;45115;52.002;4.686;2023-05-24T16:33:41;8.68;;;3.00;;
59336;SDS011;45115;52.002;4.686;2023-05-24T16:36:07;10.25;;;3.28;;
59336;SDS011;45115;52.002;4.686;2023-05-24T16:38:34;10.35;;;3.25;;
59336;SDS011;45115;52.002;4.686;2023-05-24T16:41:01;5.82;;;2.92;;
59336;SDS011;45115;52.002;4.686;2023-05-24T16:43:30;11.70;;;3.15;;
59336;SDS011;45115;52.002;4.686;2023-05-24T16:45:59;6.95;;;2.85;;
59336;SDS011;45115;52.002;4.686;2023-05-24T16:48:26;8.45;;;2.67;;
59336;SDS011;45115;52.002;4.686;2023-05-24T16:50:55;7.97;;;3.00;;
59336;SDS011;45115;52.002;4.686;2023-05-24T16:53:22;7.95;;;2.90;;
59336;SDS011;45115;52.002;4.686;2023-05-24T16:55:50;5.35;;;3.00;;
59336;SDS011;45115;52.002;4.686;2023-05-24T16:58:19;6.57;;;3.03;;
59336;SDS011;45115;52.002;4.686;2023-05-24T17:00:45;9.27;;;2.90;;
59336;SDS011;45115;52.002;4.686;2023-05-24T17:03:14;10.05;;;3.28;;
59336;SDS011;45115;52.002;4.686;2023-05-24T17:05:41;6.88;;;2.85;;
59336;SDS011;45115;52.002;4.686;2023-05-24T17:08:09;7.55;;;2.83;;
59336;SDS011;45115;52.002;4.686;2023-05-24T17:10:35;8.82;;;2.90;;
59336;SDS011;45115;52.002;4.686;2023-05-24T17:13:02;7.50;;;2.92;;
59336;SDS011;45115;52.002;4.686;2023-05-24T17:15:28;8.95;;;2.88;;
59336;SDS011;45115;52.002;4.686;2023-05-24T17:17:55;6.53;;;3.13;;
59336;SDS011;45115;52.002;4.686;2023-05-24T17:20:23;7.82;;;2.97;;
59336;SDS011;45115;52.002;4.686;2023-05-24T17:22:50;8.98;;;3.10;;
59336;SDS011;45115;52.002;4.686;2023-05-24T17:25:19;7.97;;;3.90;;
59336;SDS011;45115;52.002;4.686;2023-05-24T17:27:46;8.57;;;2.90;;
59336;SDS011;45115;52.002;4.686;2023-05-24T17:30:12;7.70;;;3.38;;
59336;SDS011;45115;52.002;4.686;2023-05-24T17:32:39;8.00;;;2.83;;
59336;SDS011;45115;52.002;4.686;2023-05-24T17:35:06;7.90;;;2.80;;
59336;SDS011;45115;52.002;4.686;2023-05-24T17:37:35;7.65;;;3.00;;